createdAt,value
2023-02-11T00:02:08.223Z,35.05
2023-02-11T00:04:36.787Z,32.60
2023-02-11T00:07:05.355Z,29.90
2023-02-11T00:09:33.845Z,26.70
2023-02-11T00:12:02.420Z,32.83
2023-02-11T00:14:32.359Z,30.92
2023-02-11T00:17:01.371Z,30.83
2023-02-11T00:19:29.911Z,31.30
2023-02-11T00:21:58.473Z,29.23
2023-02-11T00:24:27.075Z,33.25
2023-02-11T00:26:55.878Z,31.23
2023-02-11T00:29:25.724Z,30.02
2023-02-11T00:31:55.789Z,28.27
2023-02-11T00:34:26.443Z,29.17
2023-02-11T00:36:55.009Z,25.63
2023-02-11T00:39:23.911Z,30.40
2023-02-11T00:41:52.542Z,29.70
2023-02-11T00:44:21.250Z,29.05
2023-02-11T00:46:49.944Z,34.28
2023-02-11T00:49:20.106Z,34.42
2023-02-11T00:51:50.362Z,32.72
2023-02-11T00:54:18.963Z,30.45
2023-02-11T00:56:47.558Z,30.52
2023-02-11T00:59:16.167Z,28.33
2023-02-11T01:01:46.096Z,32.85
2023-02-11T01:04:14.667Z,33.50
2023-02-11T01:06:44.581Z,32.05
2023-02-11T01:09:13.227Z,31.42
2023-02-11T01:11:41.785Z,32.38
2023-02-11T01:14:10.328Z,33.42
2023-02-11T01:16:38.908Z,30.15
2023-02-11T01:19:07.608Z,30.77
2023-02-11T01:21:36.123Z,32.72
2023-02-11T01:24:06.341Z,28.70
2023-02-11T01:26:34.975Z,30.75
2023-02-11T01:29:03.718Z,26.98
2023-02-11T01:31:32.579Z,31.95
2023-02-11T01:34:02.633Z,31.05
2023-02-11T01:36:31.232Z,34.17
2023-02-11T01:39:02.236Z,31.73
2023-02-11T01:41:32.342Z,29.88
2023-02-11T01:44:15.770Z,30.75
2023-02-11T01:46:44.486Z,32.15
2023-02-11T01:49:17.639Z,36.60
2023-02-11T01:51:50.070Z,35.22
2023-02-11T01:54:40.801Z,36.58
2023-02-11T01:57:22.981Z,34.13
2023-02-11T02:00:00.194Z,33.28
2023-02-11T02:02:33.608Z,32.15
2023-02-11T02:05:07.016Z,35.55
2023-02-11T02:07:40.563Z,34.38
2023-02-11T02:10:14.995Z,33.35
2023-02-11T02:12:44.875Z,30.95
2023-02-11T02:15:23.431Z,28.63
2023-02-11T02:18:00.303Z,27.38
2023-02-11T02:21:02.084Z,33.53
2023-02-11T02:23:55.502Z,34.28
2023-02-11T02:26:55.189Z,32.90
2023-02-11T02:29:58.893Z,29.77
2023-02-11T02:32:44.198Z,28.77
2023-02-11T02:35:25.714Z,29.17
2023-02-11T02:37:58.700Z,28.77
2023-02-11T02:40:34.019Z,28.70
2023-02-11T02:43:04.014Z,25.58
2023-02-11T02:45:33.659Z,24.38
2023-02-11T02:48:03.591Z,25.33
2023-02-11T02:50:35.234Z,27.23
2023-02-11T02:53:19.140Z,27.88
2023-02-11T02:56:01.418Z,25.25
2023-02-11T02:58:54.948Z,29.33
2023-02-11T03:01:31.151Z,25.25
2023-02-11T03:04:10.497Z,25.98
2023-02-11T03:06:47.554Z,22.42
2023-02-11T03:09:22.415Z,23.60
2023-02-11T03:11:51.259Z,23.88
2023-02-11T03:14:21.986Z,24.95
2023-02-11T03:16:52.632Z,26.85
2023-02-11T03:19:27.383Z,23.52
2023-02-11T03:21:57.507Z,24.40
2023-02-11T03:24:30.530Z,24.85
2023-02-11T03:27:04.890Z,24.00
2023-02-11T03:29:37.587Z,25.05
2023-02-11T03:32:16.051Z,23.25
2023-02-11T03:34:50.319Z,20.77
2023-02-11T03:37:23.282Z,23.13
2023-02-11T03:39:55.988Z,22.58
2023-02-11T03:42:28.479Z,22.58
2023-02-11T03:45:02.658Z,23.63
2023-02-11T03:47:33.006Z,23.48
2023-02-11T03:50:05.595Z,21.88
2023-02-11T03:52:36.353Z,24.80
2023-02-11T03:55:08.418Z,19.90
2023-02-11T03:57:37.017Z,22.48
2023-02-11T04:00:07.228Z,25.77
2023-02-11T04:02:40.726Z,22.63
2023-02-11T04:05:13.398Z,24.55
2023-02-11T04:07:42.025Z,22.58
2023-02-11T04:10:12.461Z,22.67
2023-02-11T04:12:41.037Z,25.80
2023-02-11T04:15:09.998Z,24.65
2023-02-11T04:17:38.670Z,22.65
2023-02-11T04:20:07.661Z,22.73
2023-02-11T04:22:38.136Z,23.63
2023-02-11T04:25:07.638Z,19.70
2023-02-11T04:27:36.524Z,22.23
2023-02-11T04:30:08.692Z,21.90
2023-02-11T04:32:37.212Z,22.90
2023-02-11T04:35:06.695Z,21.83
2023-02-11T04:37:35.821Z,22.30
2023-02-11T04:40:06.609Z,21.00
2023-02-11T04:42:35.228Z,23.65
2023-02-11T04:45:03.828Z,22.13
2023-02-11T04:47:32.441Z,23.33
2023-02-11T04:50:00.994Z,24.73
2023-02-11T04:52:29.551Z,19.33
2023-02-11T04:54:58.191Z,19.30
2023-02-11T04:57:28.191Z,21.63
2023-02-11T04:59:56.719Z,22.20
2023-02-11T05:02:25.303Z,22.35
2023-02-11T05:04:53.932Z,19.17
2023-02-11T05:07:22.731Z,21.83
2023-02-11T05:09:51.337Z,24.25
2023-02-11T05:12:19.953Z,20.38
2023-02-11T05:14:49.875Z,22.45
2023-02-11T05:17:18.527Z,20.80
2023-02-11T05:19:47.062Z,19.25
2023-02-11T05:22:15.720Z,23.80
2023-02-11T05:24:44.255Z,21.35
2023-02-11T05:27:12.778Z,23.02
2023-02-11T05:29:41.408Z,24.65
2023-02-11T05:32:12.097Z,24.48
2023-02-11T05:34:40.716Z,28.08
2023-02-11T05:37:09.290Z,20.95
2023-02-11T05:39:37.903Z,27.35
2023-02-11T05:42:06.614Z,23.23
2023-02-11T05:44:35.341Z,22.67
2023-02-11T05:47:03.868Z,20.92
2023-02-11T05:49:33.875Z,26.02
2023-02-11T05:52:02.515Z,25.33
2023-02-11T05:54:31.021Z,22.67
2023-02-11T05:56:59.580Z,24.38
2023-02-11T05:59:28.162Z,23.70
2023-02-11T06:01:56.719Z,22.38
2023-02-11T06:04:25.290Z,21.67
2023-02-11T06:06:55.234Z,23.42
2023-02-11T06:09:23.997Z,23.45
2023-02-11T06:11:52.597Z,28.08
2023-02-11T06:14:21.172Z,25.23
2023-02-11T06:16:49.670Z,24.38
2023-02-11T06:19:18.154Z,25.35
2023-02-11T06:21:46.749Z,22.05
2023-02-11T06:24:24.663Z,24.25
2023-02-11T06:27:06.001Z,23.27
2023-02-11T06:29:34.675Z,27.40
2023-02-11T06:32:03.401Z,22.08
2023-02-11T06:34:32.064Z,25.58
2023-02-11T06:37:00.554Z,25.25
2023-02-11T06:39:30.635Z,29.73
2023-02-11T06:41:59.407Z,25.45
2023-02-11T06:44:27.983Z,25.40
2023-02-11T06:46:56.617Z,27.08
2023-02-11T06:49:25.186Z,21.35
2023-02-11T06:51:53.986Z,26.15
2023-02-11T06:54:22.716Z,25.95
2023-02-11T06:56:52.629Z,23.98
2023-02-11T06:59:21.539Z,25.42
2023-02-11T07:01:50.120Z,21.23
2023-02-11T07:04:19.565Z,29.95
2023-02-11T07:06:48.093Z,22.13
2023-02-11T07:09:16.939Z,21.88
2023-02-11T07:11:45.646Z,22.85
2023-02-11T07:14:15.529Z,21.08
2023-02-11T07:16:44.115Z,22.35
2023-02-11T07:19:12.662Z,22.70
2023-02-11T07:21:41.274Z,23.75
2023-02-11T07:24:11.250Z,30.50
2023-02-11T07:26:39.971Z,23.55
2023-02-11T07:29:08.626Z,20.60
2023-02-11T07:31:38.640Z,22.73
2023-02-11T07:34:07.272Z,22.92
2023-02-11T07:36:36.012Z,22.08
2023-02-11T07:39:04.710Z,24.35
2023-02-11T07:41:37.702Z,21.73
2023-02-11T07:44:07.056Z,22.38
2023-02-11T07:46:35.925Z,25.83
2023-02-11T07:49:05.915Z,24.33
2023-02-11T07:51:34.485Z,22.55
2023-02-11T07:54:03.068Z,25.80
2023-02-11T07:56:31.669Z,24.10
2023-02-11T07:59:02.499Z,25.50
2023-02-11T08:01:31.904Z,23.35
2023-02-11T08:04:02.554Z,19.50
2023-02-11T08:06:34.179Z,23.27
2023-02-11T08:09:07.035Z,21.45
2023-02-11T08:11:36.070Z,23.23
2023-02-11T08:14:04.732Z,26.58
2023-02-11T08:16:35.166Z,23.67
2023-02-11T08:19:05.873Z,22.42
2023-02-11T08:21:35.838Z,22.50
2023-02-11T08:24:04.790Z,22.48
2023-02-11T08:26:34.963Z,26.40
2023-02-11T08:29:07.380Z,25.92
2023-02-11T08:31:38.443Z,21.92
2023-02-11T08:34:07.417Z,24.98
2023-02-11T08:36:38.765Z,24.70
2023-02-11T08:39:19.181Z,24.33
2023-02-11T08:41:49.776Z,21.23
2023-02-11T08:44:19.132Z,22.35
2023-02-11T08:46:48.093Z,25.10
2023-02-11T08:49:17.058Z,22.42
2023-02-11T08:51:47.558Z,22.98
2023-02-11T08:54:16.425Z,21.70
2023-02-11T08:56:45.010Z,18.63
2023-02-11T08:59:15.448Z,19.83
2023-02-11T09:01:44.753Z,20.25
2023-02-11T09:04:13.720Z,18.88
2023-02-11T09:06:42.557Z,19.33
2023-02-11T09:09:14.844Z,23.30
2023-02-11T09:11:44.929Z,20.73
2023-02-11T09:14:19.410Z,15.25
2023-02-11T09:16:48.793Z,15.27
2023-02-11T09:19:18.105Z,18.20
2023-02-11T09:21:46.780Z,16.98
2023-02-11T09:24:16.785Z,17.75
2023-02-11T09:26:45.465Z,15.63
2023-02-11T09:29:14.051Z,17.95
2023-02-11T09:31:42.807Z,22.50
2023-02-11T09:34:12.797Z,26.20
2023-02-11T09:36:42.073Z,30.27
2023-02-11T09:39:15.094Z,26.88
2023-02-11T09:42:31.330Z,26.90
2023-02-11T09:45:01.320Z,28.83
2023-02-11T09:47:33.570Z,26.42
2023-02-11T09:50:05.447Z,27.83
2023-02-11T09:52:40.167Z,29.23
2023-02-11T09:55:19.671Z,25.10
2023-02-11T09:57:49.932Z,23.38
2023-02-11T10:00:25.109Z,22.00
2023-02-11T10:03:26.288Z,27.48
2023-02-11T10:06:22.325Z,27.25
2023-02-11T10:09:02.705Z,26.42
2023-02-11T10:11:41.618Z,27.90
2023-02-11T10:14:26.453Z,29.25
2023-02-11T10:17:04.461Z,29.25
2023-02-11T10:19:49.110Z,27.23
2023-02-11T10:22:22.490Z,24.52
2023-02-11T10:24:58.268Z,28.80
2023-02-11T10:27:32.602Z,29.23
2023-02-11T10:30:11.140Z,31.30
2023-02-11T10:32:46.049Z,31.83
2023-02-11T10:35:18.010Z,25.42
2023-02-11T10:37:46.578Z,29.73
2023-02-11T10:40:17.765Z,25.85
2023-02-11T10:42:49.911Z,28.67
2023-02-11T10:45:25.916Z,27.75
2023-02-11T10:47:55.208Z,28.60
2023-02-11T10:50:26.424Z,31.40
2023-02-11T10:53:12.554Z,28.17
2023-02-11T10:55:53.613Z,29.38
2023-02-11T10:58:27.703Z,30.70
2023-02-11T11:01:00.017Z,28.65
2023-02-11T11:03:33.164Z,31.70
2023-02-11T11:06:03.319Z,29.60
2023-02-11T11:08:43.530Z,25.23
2023-02-11T11:11:14.033Z,30.45
2023-02-11T11:13:55.609Z,26.70
2023-02-11T11:16:26.998Z,30.42
2023-02-11T11:19:17.318Z,27.98
2023-02-11T11:21:47.538Z,28.83
2023-02-11T11:24:20.936Z,32.70
2023-02-11T11:26:52.445Z,31.83
2023-02-11T11:29:26.878Z,28.40
2023-02-11T11:31:59.520Z,31.05
2023-02-11T11:34:30.830Z,33.78
2023-02-11T11:37:00.960Z,30.88
2023-02-11T11:39:32.530Z,31.90
2023-02-11T11:42:03.292Z,27.67
2023-02-11T11:44:33.446Z,32.67
2023-02-11T11:47:23.590Z,24.73
2023-02-11T11:50:19.537Z,29.85
2023-02-11T11:52:55.350Z,28.67
2023-02-11T11:55:27.636Z,27.20
2023-02-11T11:57:56.427Z,26.65
2023-02-11T12:00:31.903Z,25.23
2023-02-11T12:03:28.270Z,24.55
2023-02-11T12:06:08.843Z,28.77
2023-02-11T12:08:50.034Z,21.95
2023-02-11T12:11:26.856Z,23.65
2023-02-11T12:14:04.708Z,22.55
2023-02-11T12:16:43.506Z,23.70
2023-02-11T12:19:57.055Z,28.42
2023-02-11T12:22:38.810Z,25.48
2023-02-11T12:25:28.219Z,28.20
2023-02-11T12:28:09.369Z,26.20
2023-02-11T12:30:53.690Z,28.10
2023-02-11T12:33:37.192Z,27.77
2023-02-11T12:36:13.430Z,25.73
2023-02-11T12:38:58.129Z,28.13
2023-02-11T12:41:57.882Z,25.30
2023-02-11T12:44:37.123Z,27.83
2023-02-11T12:47:21.468Z,24.23
2023-02-11T12:50:10.174Z,26.52
2023-02-11T12:52:53.638Z,23.85
2023-02-11T12:55:26.004Z,24.30
2023-02-11T12:57:57.486Z,20.25
2023-02-11T13:00:32.258Z,20.10
2023-02-11T13:03:06.093Z,22.13
2023-02-11T13:05:39.023Z,19.42
2023-02-11T13:08:15.248Z,23.73
2023-02-11T13:10:49.858Z,21.55
2023-02-11T13:13:22.981Z,22.08
2023-02-11T13:15:55.679Z,23.67
2023-02-11T13:18:48.191Z,21.55
2023-02-11T13:21:34.901Z,23.13
2023-02-11T13:24:14.112Z,26.63
2023-02-11T13:26:50.929Z,23.83
2023-02-11T13:29:30.666Z,24.90
2023-02-11T13:32:08.559Z,26.50
2023-02-11T13:35:03.887Z,23.70
2023-02-11T13:37:37.279Z,22.38
2023-02-11T13:40:21.123Z,23.02
2023-02-11T13:42:53.438Z,25.85
2023-02-11T13:45:31.172Z,21.90
2023-02-11T13:48:01.933Z,23.95
2023-02-11T13:50:33.670Z,23.35
2023-02-11T13:53:04.455Z,23.88
2023-02-11T13:55:34.906Z,23.08
2023-02-11T13:58:36.460Z,23.60
2023-02-11T14:01:05.552Z,22.55
2023-02-11T14:03:56.636Z,24.02
2023-02-11T14:06:45.169Z,23.33
2023-02-11T14:09:40.101Z,23.23
2023-02-11T14:12:24.911Z,22.92
2023-02-11T14:15:06.030Z,26.55
2023-02-11T14:17:36.308Z,26.02
2023-02-11T14:20:49.721Z,25.33
2023-02-11T14:23:27.137Z,26.38
2023-02-11T14:26:05.102Z,25.23
2023-02-11T14:28:34.478Z,22.65
2023-02-11T14:31:11.333Z,23.23
2023-02-11T14:33:53.369Z,26.27
2023-02-11T14:36:47.592Z,25.60
2023-02-11T14:39:29.760Z,27.48
2023-02-11T14:41:58.391Z,26.63
2023-02-11T14:44:29.262Z,27.52
2023-02-11T14:46:59.637Z,25.13
2023-02-11T14:49:31.973Z,24.63
2023-02-11T14:52:07.137Z,26.10
2023-02-11T14:54:36.821Z,26.73
2023-02-11T14:57:11.210Z,24.08
2023-02-11T14:59:40.453Z,26.67
2023-02-11T15:02:26.184Z,25.45
2023-02-11T15:04:55.251Z,26.58
2023-02-11T15:07:23.907Z,25.27
2023-02-11T15:09:54.733Z,28.77
2023-02-11T15:12:27.308Z,27.20
2023-02-11T15:14:58.537Z,27.55
2023-02-11T15:17:32.900Z,24.67
2023-02-11T15:20:02.849Z,24.10
2023-02-11T15:22:36.793Z,27.58
2023-02-11T15:25:14.691Z,25.35
2023-02-11T15:27:45.065Z,27.98
2023-02-11T15:30:35.897Z,22.05
2023-02-11T15:33:06.840Z,22.95
2023-02-11T15:35:37.954Z,26.88
2023-02-11T15:38:06.948Z,26.23
2023-02-11T15:40:37.511Z,25.20
2023-02-11T15:43:09.539Z,24.40
2023-02-11T15:45:40.908Z,25.50
2023-02-11T15:48:14.936Z,27.83
2023-02-11T15:50:49.840Z,24.65
2023-02-11T15:53:25.610Z,24.80
2023-02-11T15:55:59.523Z,24.55
2023-02-11T15:58:28.254Z,25.35
2023-02-11T16:00:59.889Z,23.67
2023-02-11T16:03:32.814Z,25.23
2023-02-11T16:06:22.232Z,24.42
2023-02-11T16:09:05.368Z,24.80
2023-02-11T16:11:36.457Z,26.17
2023-02-11T16:14:22.651Z,23.77
2023-02-11T16:16:53.239Z,27.05
2023-02-11T16:19:26.378Z,23.58
2023-02-11T16:21:56.171Z,24.58
2023-02-11T16:24:28.999Z,21.40
2023-02-11T16:27:00.635Z,25.48
2023-02-11T16:29:30.856Z,25.80
2023-02-11T16:32:09.114Z,24.85
2023-02-11T16:34:39.315Z,24.23
2023-02-11T16:37:08.075Z,25.58
2023-02-11T16:39:36.699Z,21.83
2023-02-11T16:42:07.610Z,20.55
2023-02-11T16:44:36.627Z,21.65
2023-02-11T16:47:08.314Z,19.58
2023-02-11T16:49:41.734Z,21.45
2023-02-11T16:52:15.402Z,21.17
2023-02-11T16:54:43.923Z,18.60
2023-02-11T16:57:15.776Z,23.67
2023-02-11T16:59:44.654Z,21.63
2023-02-11T17:02:17.595Z,22.45
2023-02-11T17:04:47.831Z,21.40
2023-02-11T17:07:16.359Z,22.10
2023-02-11T17:09:44.871Z,22.13
2023-02-11T17:12:13.461Z,24.30
2023-02-11T17:14:42.139Z,22.00
2023-02-11T17:17:11.145Z,22.52
2023-02-11T17:19:40.259Z,24.52
2023-02-11T17:22:11.642Z,25.40
2023-02-11T17:24:40.178Z,22.25
2023-02-11T17:27:08.939Z,24.60
2023-02-11T17:29:38.092Z,21.98
2023-02-11T17:32:06.977Z,23.50
2023-02-11T17:34:35.683Z,19.88
2023-02-11T17:37:09.050Z,22.98
2023-02-11T17:39:41.078Z,20.52
2023-02-11T17:42:11.637Z,23.60
2023-02-11T17:44:40.133Z,21.85
2023-02-11T17:47:08.819Z,20.65
2023-02-11T17:49:37.444Z,21.63
2023-02-11T17:52:06.020Z,23.17
2023-02-11T17:54:34.636Z,22.38
2023-02-11T17:57:04.678Z,26.58
2023-02-11T17:59:35.486Z,24.17
2023-02-11T18:02:05.127Z,23.50
2023-02-11T18:04:34.285Z,26.13
2023-02-11T18:07:03.062Z,23.50
2023-02-11T18:09:31.631Z,21.77
2023-02-11T18:12:00.181Z,24.50
2023-02-11T18:14:30.191Z,23.13
2023-02-11T18:16:58.825Z,24.77
2023-02-11T18:19:30.448Z,28.02
2023-02-11T18:22:01.129Z,26.23
2023-02-11T18:24:30.204Z,22.73
2023-02-11T18:26:59.128Z,25.25
2023-02-11T18:29:27.970Z,24.92
2023-02-11T18:31:58.500Z,27.05
2023-02-11T18:34:27.377Z,26.50
2023-02-11T18:36:55.948Z,25.75
2023-02-11T18:39:26.407Z,25.60
2023-02-11T18:41:56.817Z,25.40
2023-02-11T18:44:25.959Z,25.48
2023-02-11T18:46:54.667Z,26.73
2023-02-11T18:49:24.763Z,25.45
2023-02-11T18:51:53.319Z,29.67
2023-02-11T18:54:21.909Z,29.50
2023-02-11T18:56:50.490Z,29.45
2023-02-11T18:59:19.046Z,30.25
2023-02-11T19:01:47.691Z,26.90
2023-02-11T19:04:19.853Z,31.42
2023-02-11T19:06:50.593Z,31.35
2023-02-11T19:09:21.101Z,27.33
2023-02-11T19:11:54.031Z,29.33
2023-02-11T19:14:25.265Z,30.40
2023-02-11T19:16:57.567Z,28.90
2023-02-11T19:19:28.973Z,33.17
2023-02-11T19:22:00.285Z,33.03
2023-02-11T19:24:29.867Z,31.58
2023-02-11T19:27:00.250Z,30.50
2023-02-11T19:29:29.919Z,30.45
2023-02-11T19:31:58.718Z,31.80
2023-02-11T19:34:27.309Z,29.40
2023-02-11T19:36:56.683Z,27.98
2023-02-11T19:39:26.948Z,29.40
2023-02-11T19:41:55.585Z,29.02
2023-02-11T19:44:24.219Z,26.17
2023-02-11T19:46:53.289Z,28.90
2023-02-11T19:49:25.823Z,27.35
2023-02-11T19:51:55.727Z,32.53
2023-02-11T19:54:27.363Z,27.70
2023-02-11T19:56:56.351Z,28.55
2023-02-11T19:59:24.910Z,30.63
2023-02-11T20:01:53.871Z,28.20
2023-02-11T20:04:24.665Z,28.48
2023-02-11T20:06:53.315Z,28.55
2023-02-11T20:09:22.748Z,30.02
2023-02-11T20:11:52.645Z,28.27
2023-02-11T20:14:21.232Z,29.88
2023-02-11T20:16:50.307Z,28.25
2023-02-11T20:19:21.227Z,27.33
2023-02-11T20:21:52.166Z,28.42
2023-02-11T20:24:21.736Z,30.27
2023-02-11T20:26:55.528Z,31.38
2023-02-11T20:29:25.937Z,31.88
2023-02-11T20:31:55.226Z,31.52
2023-02-11T20:34:25.176Z,30.70
2023-02-11T20:36:54.751Z,29.77
2023-02-11T20:39:25.127Z,27.30
2023-02-11T20:41:56.511Z,33.30
2023-02-11T20:44:25.262Z,29.63
2023-02-11T20:46:54.807Z,32.38
2023-02-11T20:49:24.995Z,37.60
2023-02-11T20:51:54.412Z,31.75
2023-02-11T20:54:24.034Z,32.22
2023-02-11T20:56:55.313Z,28.50
2023-02-11T20:59:24.011Z,30.75
2023-02-11T21:01:55.284Z,27.00
2023-02-11T21:04:26.193Z,25.35
2023-02-11T21:06:56.408Z,25.92
2023-02-11T21:09:27.674Z,28.77
2023-02-11T21:11:57.625Z,29.25
2023-02-11T21:14:27.537Z,31.95
2023-02-11T21:16:56.399Z,30.02
2023-02-11T21:19:25.105Z,27.95
2023-02-11T21:21:55.153Z,27.08
2023-02-11T21:24:23.738Z,33.20
2023-02-11T21:26:52.313Z,28.40
2023-02-11T21:29:22.228Z,27.63
2023-02-11T21:31:51.462Z,26.48
2023-02-11T21:34:20.690Z,26.30
2023-02-11T21:36:51.153Z,25.17
2023-02-11T21:39:21.064Z,30.73
2023-02-11T21:41:49.855Z,25.60
2023-02-11T21:44:18.537Z,31.55
2023-02-11T21:46:48.904Z,28.42
2023-02-11T21:49:17.709Z,30.13
2023-02-11T21:51:46.286Z,26.23
2023-02-11T21:54:14.802Z,28.58
2023-02-11T21:56:43.335Z,25.75
2023-02-11T21:59:13.556Z,28.27
2023-02-11T22:01:42.293Z,27.55
2023-02-11T22:04:12.493Z,26.02
2023-02-11T22:06:41.219Z,29.73
2023-02-11T22:09:10.758Z,32.95
2023-02-11T22:11:39.655Z,31.27
2023-02-11T22:14:08.386Z,30.05
2023-02-11T22:16:37.303Z,29.92
2023-02-11T22:19:07.372Z,28.13
2023-02-11T22:21:37.321Z,26.63
2023-02-11T22:24:06.596Z,26.83
2023-02-11T22:26:35.158Z,33.47
2023-02-11T22:29:03.698Z,28.95
2023-02-11T22:31:34.761Z,30.17
2023-02-11T22:34:04.978Z,34.22
2023-02-11T22:36:35.515Z,32.17
2023-02-11T22:39:08.246Z,37.92
2023-02-11T22:41:38.263Z,40.00
2023-02-11T22:44:06.929Z,37.85
2023-02-11T22:46:35.618Z,35.60
2023-02-11T22:49:04.636Z,30.45
2023-02-11T22:51:33.733Z,32.08
2023-02-11T22:54:04.107Z,32.35
2023-02-11T22:56:35.581Z,37.05
2023-02-11T22:59:07.220Z,31.25
2023-02-11T23:01:36.181Z,33.42
2023-02-11T23:04:06.924Z,34.42
2023-02-11T23:06:36.192Z,34.70
2023-02-11T23:09:05.723Z,32.83
2023-02-11T23:11:36.137Z,32.42
2023-02-11T23:14:05.310Z,32.70
2023-02-11T23:16:35.110Z,32.70
2023-02-11T23:19:06.674Z,31.33
2023-02-11T23:21:37.356Z,36.08
2023-02-11T23:24:08.668Z,35.63
2023-02-11T23:26:39.023Z,32.10
2023-02-11T23:29:08.100Z,26.95
2023-02-11T23:31:39.631Z,26.67
2023-02-11T23:34:08.656Z,31.95
2023-02-11T23:36:37.568Z,35.03
2023-02-11T23:39:06.977Z,28.40
2023-02-11T23:41:35.563Z,27.50
2023-02-11T23:44:05.771Z,29.98
2023-02-11T23:46:34.460Z,28.73
2023-02-11T23:49:03.315Z,27.08
2023-02-11T23:51:31.846Z,23.92
2023-02-11T23:54:00.379Z,26.50
2023-02-11T23:56:29.455Z,27.98
2023-02-11T23:58:59.035Z,25.63
